Time;durP1;ratioP1;P1;durP2;ratioP2;P2;SDS_P1;SDS_P2;PMS_P1;PMS_P2;Temp;Humidity;BMP_temperature;BMP_pressure;BME280_temperature;BME280_humidity;BME280_pressure;Samples;Min_cycle;Max_cycle;Signal;HPM_P1;HPM_P2
2023/03/20 00:00:09;;;;;;;11.20;5.35;;;;;;;4.53;81.31;94981.63;5027017;28;20689;-76
2023/03/20 00:02:37;;;;;;;9.98;6.35;;;;;;;4.49;82.05;94975.25;5029907;28;20288;-76
2023/03/20 00:05:17;;;;;;;14.40;5.20;;;;;;;4.55;81.72;94971.41;5020115;28;20660;-76
2023/03/20 00:07:44;;;;;;;16.58;5.90;;;;;;;4.63;81.73;94960.09;5018522;28;20749;-76
2023/03/20 00:10:14;;;;;;;12.23;6.25;;;;;;;4.74;82.25;94964.28;5031393;28;20200;-77
2023/03/20 00:12:43;;;;;;;14.95;6.07;;;;;;;4.66;81.50;94959.50;5031469;28;20196;-75
2023/03/20 00:15:25;;;;;;;16.00;6.45;;;;;;;4.70;81.54;94968.59;5030930;28;20204;-75
2023/03/20 00:17:53;;;;;;;12.85;6.28;;;;;;;4.69;81.41;94967.00;5010936;28;20208;-76
2023/03/20 00:20:20;;;;;;;13.40;5.57;;;;;;;4.58;82.67;94962.81;5027346;28;20216;-75
2023/03/20 00:22:47;;;;;;;14.50;5.75;;;;;;;4.71;82.98;94962.16;5030982;28;20208;-75
2023/03/20 00:25:15;;;;;;;11.98;6.15;;;;;;;4.60;82.24;94960.66;5030221;28;20232;-76
2023/03/20 00:27:44;;;;;;;12.00;5.55;;;;;;;4.62;82.56;94953.94;5030686;28;20296;-75
2023/03/20 00:30:29;;;;;;;18.17;5.65;;;;;;;4.51;82.56;94957.00;5030415;28;20265;-75
2023/03/20 00:32:58;;;;;;;12.60;5.50;;;;;;;4.44;82.28;94959.19;5030033;28;20212;-76
2023/03/20 00:35:30;;;;;;;17.83;5.38;;;;;;;4.47;81.65;94953.25;5030112;28;20213;-75
2023/03/20 00:37:58;;;;;;;14.88;4.82;;;;;;;4.43;82.40;94953.00;5030524;28;20282;-75
2023/03/20 00:40:29;;;;;;;14.48;5.60;;;;;;;4.37;82.59;94956.84;5030767;28;20216;-75
2023/03/20 00:43:00;;;;;;;11.80;5.35;;;;;;;4.34;82.51;94948.53;5030653;28;20295;-76
2023/03/20 00:45:29;;;;;;;11.43;5.38;;;;;;;4.22;82.77;94943.53;5030577;28;20283;-75
2023/03/20 00:47:57;;;;;;;15.73;5.38;;;;;;;4.15;83.37;94948.41;5030335;28;20208;-74
2023/03/20 00:50:28;;;;;;;13.40;5.65;;;;;;;4.11;82.77;94950.81;5029862;28;20274;-76
2023/03/20 00:52:56;;;;;;;10.00;4.57;;;;;;;4.03;84.01;94946.06;5030344;28;20282;-76
2023/03/20 00:55:24;;;;;;;8.10;4.43;;;;;;;3.95;84.19;94938.63;5030297;28;20610;-76
2023/03/20 00:57:54;;;;;;;6.72;3.55;;;;;;;3.96;84.07;94944.78;5030524;28;20222;-75
2023/03/20 01:00:26;;;;;;;7.90;4.32;;;;;;;3.96;83.94;94940.25;5030540;28;20208;-75
2023/03/20 01:02:55;;;;;;;7.25;2.90;;;;;;;3.86;83.50;94934.91;5029488;28;20545;-76
2023/03/20 01:05:22;;;;;;;14.73;7.93;;;;;;;3.93;84.07;94940.78;5030447;28;20204;-76
2023/03/20 01:07:49;;;;;;;9.70;4.82;;;;;;;3.99;84.34;94938.84;5017168;28;20262;-76
2023/03/20 01:10:17;;;;;;;8.45;4.28;;;;;;;4.01;83.37;94936.69;5030516;28;20208;-76
2023/03/20 01:12:46;;;;;;;8.95;4.53;;;;;;;4.02;84.42;94932.94;5030021;28;20211;-76
2023/03/20 01:15:19;;;;;;;8.48;4.45;;;;;;;3.96;83.99;94928.72;5030134;28;20204;-76
2023/03/20 01:17:48;;;;;;;12.77;7.88;;;;;;;3.98;83.54;94924.66;5030114;28;20204;-76
2023/03/20 01:20:17;;;;;;;16.85;8.43;;;;;;;3.97;84.22;94925.72;5029781;28;20220;-76
2023/03/20 01:22:44;;;;;;;13.32;7.75;;;;;;;3.91;83.81;94918.81;5029596;28;20200;-76
2023/03/20 01:25:11;;;;;;;13.00;7.65;;;;;;;3.79;84.21;94926.41;5029472;28;20228;-76
2023/03/20 01:27:38;;;;;;;13.88;8.05;;;;;;;3.83;83.68;94930.09;5029623;28;20766;-76
2023/03/20 01:30:16;;;;;;;15.93;8.50;;;;;;;3.74;84.54;94923.75;5029883;28;20204;-76
2023/03/20 01:32:45;;;;;;;12.05;7.63;;;;;;;3.78;84.87;94927.47;5029663;28;20200;-76
2023/03/20 01:35:15;;;;;;;14.55;8.05;;;;;;;3.74;84.76;94937.94;5029863;28;20270;-76
2023/03/20 01:37:42;;;;;;;16.70;8.85;;;;;;;3.69;84.13;94934.50;5030164;28;20208;-76
2023/03/20 01:40:19;;;;;;;13.40;8.15;;;;;;;3.66;84.54;94930.50;5029740;28;20302;-76
2023/03/20 01:42:46;;;;;;;13.73;7.60;;;;;;;3.60;85.13;94930.78;5029863;28;20552;-76
2023/03/20 01:45:19;;;;;;;15.18;8.00;;;;;;;3.63;85.12;94935.59;5029948;28;20262;-75
2023/03/20 01:47:46;;;;;;;12.15;7.55;;;;;;;3.67;84.97;94936.66;5029435;28;20228;-75
2023/03/20 01:50:29;;;;;;;13.30;8.30;;;;;;;3.75;85.34;94938.75;5029224;28;20254;-75
2023/03/20 01:53:03;;;;;;;13.80;8.15;;;;;;;3.71;85.49;94943.03;5028770;28;20610;-76
2023/03/20 01:55:31;;;;;;;12.23;4.75;;;;;;;3.74;84.20;94942.50;5029269;28;20309;-76
2023/03/20 01:58:03;;;;;;;8.75;4.68;;;;;;;3.62;84.59;94944.72;5029542;28;20219;-76
2023/03/20 02:00:31;;;;;;;12.40;5.03;;;;;;;3.71;84.73;94941.16;5028947;28;20212;-76
2023/03/20 02:02:58;;;;;;;12.73;5.22;;;;;;;3.68;85.54;94938.25;5015855;28;20609;-75
2023/03/20 02:05:27;;;;;;;7.85;4.65;;;;;;;3.72;84.87;94944.66;5028800;28;20548;-75
2023/03/20 02:08:07;;;;;;;9.55;4.55;;;;;;;3.70;85.44;94938.75;5009553;28;20299;-75
2023/03/20 02:10:35;;;;;;;9.75;5.18;;;;;;;3.77;85.40;94936.59;5024465;28;20246;-75
2023/03/20 02:13:02;;;;;;;8.57;4.82;;;;;;;3.77;85.11;94925.88;5028993;28;20209;-76
2023/03/20 02:15:30;;;;;;;9.93;4.32;;;;;;;3.68;84.95;94928.34;5028943;28;20208;-76
2023/03/20 02:17:57;;;;;;;9.70;4.43;;;;;;;3.61;85.65;94919.00;5028951;28;20254;-75
2023/03/20 02:20:37;;;;;;;9.73;5.75;;;;;;;3.69;85.89;94929.16;5028634;28;20232;-76
2023/03/20 02:23:52;;;;;;;8.27;4.30;;;;;;;3.58;85.78;94926.50;5028289;28;20204;-76
2023/03/20 02:26:31;;;;;;;8.95;5.07;;;;;;;3.49;85.23;94930.84;4960720;28;20639;-75
2023/03/20 02:29:38;;;;;;;10.35;4.20;;;;;;;3.37;86.07;94935.72;5015636;28;20231;-75
2023/03/20 02:32:48;;;;;;;9.07;4.63;;;;;;;3.33;86.12;94937.34;4986484;28;20204;-74
2023/03/20 02:35:31;;;;;;;11.77;4.38;;;;;;;3.28;86.53;94941.94;5028119;28;20207;-75
2023/03/20 02:38:29;;;;;;;7.65;4.43;;;;;;;3.28;86.28;94945.38;5028598;28;20671;-75
2023/03/20 02:41:07;;;;;;;8.88;4.70;;;;;;;3.27;86.04;94938.47;5015971;28;20683;-76
2023/03/20 02:43:43;;;;;;;8.68;4.68;;;;;;;3.23;85.59;94921.34;5016879;28;20532;-76
2023/03/20 02:46:19;;;;;;;8.95;4.03;;;;;;;3.13;86.14;94926.72;5028275;28;20236;-76
2023/03/20 02:48:52;;;;;;;9.23;5.20;;;;;;;3.03;87.04;94926.75;5028650;28;20204;-75
2023/03/20 02:51:23;;;;;;;13.07;5.28;;;;;;;3.09;86.99;94931.03;5027959;28;20270;-75
2023/03/20 02:53:59;;;;;;;11.15;4.95;;;;;;;3.10;87.31;94930.75;5028318;28;20299;-75
2023/03/20 02:56:32;;;;;;;9.90;5.47;;;;;;;3.22;87.17;94920.53;5015875;28;20211;-74
2023/03/20 02:59:05;;;;;;;9.93;4.78;;;;;;;3.22;86.85;94920.53;5028691;28;20234;-75
2023/03/20 03:01:36;;;;;;;12.40;5.20;;;;;;;3.22;87.30;94927.75;5027734;28;20195;-75
2023/03/20 03:04:08;;;;;;;9.23;5.15;;;;;;;3.28;87.17;94923.97;5028139;28;20207;-75
2023/03/20 03:06:38;;;;;;;8.15;5.00;;;;;;;3.30;86.27;94916.47;5027966;28;20232;-76
2023/03/20 03:09:11;;;;;;;12.77;5.40;;;;;;;3.15;87.15;94919.19;5028188;28;20717;-75
2023/03/20 03:11:45;;;;;;;14.00;5.55;;;;;;;3.11;87.43;94921.66;5028523;28;20294;-75
2023/03/20 03:14:18;;;;;;;16.30;5.50;;;;;;;3.24;87.39;94922.94;5028258;28;20215;-75
2023/03/20 03:16:46;;;;;;;18.25;5.70;;;;;;;3.20;87.27;94922.69;5027983;28;20212;-75
2023/03/20 03:19:18;;;;;;;10.68;5.70;;;;;;;3.16;87.15;94921.63;5028206;28;20224;-75
2023/03/20 03:21:47;;;;;;;17.20;7.03;;;;;;;3.12;86.98;94919.78;5028055;28;20683;-76
2023/03/20 03:24:28;;;;;;;11.75;5.85;;;;;;;3.13;87.89;94916.03;5027472;28;20228;-75
2023/03/20 03:26:56;;;;;;;11.75;6.85;;;;;;;3.04;87.57;94920.31;5027704;28;20311;-75
2023/03/20 03:29:25;;;;;;;14.38;6.25;;;;;;;3.03;87.75;94924.06;5027893;28;20197;-75
2023/03/20 03:31:53;;;;;;;21.48;11.55;;;;;;;3.08;87.34;94919.50;5026885;28;20660;-75
2023/03/20 03:34:22;;;;;;;19.52;11.43;;;;;;;3.00;87.15;94932.66;5028074;28;20204;-75
2023/03/20 03:36:55;;;;;;;18.33;10.80;;;;;;;2.84;88.55;94924.69;5031654;28;20208;-75
2023/03/20 03:39:33;;;;;;;22.17;11.30;;;;;;;2.89;89.23;94928.41;5031963;28;20208;-75
2023/03/20 03:42:08;;;;;;;10.68;5.47;;;;;;;2.99;89.28;94931.88;5031892;28;20608;-75
2023/03/20 03:44:42;;;;;;;13.30;6.07;;;;;;;3.22;88.78;94925.88;5032242;28;20872;-75
2023/03/20 03:47:13;;;;;;;11.35;6.22;;;;;;;3.28;87.44;94918.63;5032128;28;20389;-75
2023/03/20 03:49:46;;;;;;;13.77;7.10;;;;;;;3.27;88.24;94917.03;5031699;28;20196;-77
2023/03/20 03:52:20;;;;;;;12.43;6.57;;;;;;;3.19;87.79;94921.06;5031397;28;20223;-76
2023/03/20 03:54:52;;;;;;;11.60;5.78;;;;;;;3.07;88.16;94917.09;5018998;28;20201;-77
2023/03/20 03:57:24;;;;;;;7.60;5.18;;;;;;;3.11;87.15;94918.97;5031605;28;20206;-75
2023/03/20 03:59:52;;;;;;;11.13;5.68;;;;;;;3.23;87.29;94921.34;5031728;28;20201;-76
2023/03/20 04:02:22;;;;;;;11.68;5.97;;;;;;;3.34;85.98;94912.19;5031586;28;20274;-76
2023/03/20 04:04:52;;;;;;;8.70;5.28;;;;;;;3.23;87.08;94907.94;5031688;28;20201;-76
2023/03/20 04:07:20;;;;;;;12.00;6.80;;;;;;;3.16;86.86;94912.78;5031446;28;20439;-75
2023/03/20 04:09:48;;;;;;;17.65;7.63;;;;;;;3.17;86.43;94917.06;5031788;28;20208;-77
2023/03/20 04:12:33;;;;;;;15.27;8.00;;;;;;;3.11;87.20;94896.75;5031751;28;20257;-74
2023/03/20 04:15:00;;;;;;;14.70;7.10;;;;;;;3.05;87.13;94903.19;5031621;28;20197;-76
2023/03/20 04:17:26;;;;;;;14.52;6.80;;;;;;;3.17;87.73;94901.81;5031763;28;20204;-76
2023/03/20 04:19:53;;;;;;;13.57;6.40;;;;;;;3.26;87.29;94891.34;5031223;28;20224;-76
2023/03/20 04:22:20;;;;;;;20.25;7.47;;;;;;;3.26;86.95;94899.38;5030515;28;20254;-76
2023/03/20 04:24:51;;;;;;;14.57;6.90;;;;;;;3.19;87.08;94901.53;5030344;28;20236;-77
2023/03/20 04:27:18;;;;;;;18.17;7.15;;;;;;;3.21;86.97;94902.06;5030836;28;20703;-76
2023/03/20 04:29:45;;;;;;;15.23;5.80;;;;;;;3.19;87.21;94898.84;5031020;28;20243;-76
2023/03/20 04:32:12;;;;;;;19.88;6.85;;;;;;;3.33;86.85;94899.88;5030853;28;20215;-76
2023/03/20 04:34:39;;;;;;;13.43;6.18;;;;;;;3.21;87.17;94902.06;5030954;28;20225;-76
2023/03/20 04:37:07;;;;;;;13.93;5.65;;;;;;;3.39;87.22;94893.41;5030674;28;20242;-75
2023/03/20 04:39:35;;;;;;;13.70;6.63;;;;;;;3.57;86.49;94890.09;5030545;28;20200;-76
2023/03/20 04:42:04;;;;;;;16.00;8.70;;;;;;;3.54;87.02;94896.03;5030742;28;20769;-76
2023/03/20 04:44:32;;;;;;;11.13;7.07;;;;;;;3.72;87.45;94901.78;5030438;28;20935;-77
2023/03/20 04:46:58;;;;;;;16.65;7.93;;;;;;;4.07;86.09;94901.56;5029824;28;20232;-77
2023/03/20 04:49:25;;;;;;;14.88;6.82;;;;;;;4.15;84.85;94906.31;5030377;28;20208;-77
2023/03/20 04:51:52;;;;;;;9.98;5.82;;;;;;;4.45;83.00;94916.00;5030430;28;20348;-77
2023/03/20 04:54:19;;;;;;;14.85;6.32;;;;;;;5.08;79.43;94912.41;5030428;28;20200;-77
2023/03/20 04:56:46;;;;;;;14.27;5.57;;;;;;;5.69;78.35;94918.63;5030487;28;20292;-77
2023/03/20 04:59:14;;;;;;;14.80;6.38;;;;;;;6.39;75.17;94913.31;5030388;28;20231;-76
2023/03/20 05:01:41;;;;;;;7.80;4.85;;;;;;;6.79;72.73;94913.72;5029480;28;20204;-79
2023/03/20 05:04:08;;;;;;;11.80;5.15;;;;;;;7.31;70.32;94923.25;5030922;28;20209;-78
2023/03/20 05:06:35;;;;;;;9.75;5.10;;;;;;;7.59;68.99;94915.94;5030144;28;20209;-79
2023/03/20 05:09:02;;;;;;;12.85;5.47;;;;;;;7.50;68.45;94917.75;5030351;28;20212;-75
2023/03/20 05:11:32;;;;;;;13.50;5.53;;;;;;;7.37;68.86;94921.25;5029778;28;20262;-78
2023/03/20 05:13:59;;;;;;;11.82;5.80;;;;;;;7.57;68.08;94918.13;5030137;28;20721;-77
2023/03/20 05:16:30;;;;;;;11.30;6.18;;;;;;;7.53;68.38;94922.53;5030321;28;20212;-76
2023/03/20 05:18:57;;;;;;;13.32;6.85;;;;;;;7.67;67.94;94923.31;5030419;28;20231;-77
2023/03/20 05:21:24;;;;;;;10.70;6.00;;;;;;;7.72;67.62;94920.53;5030279;28;20211;-75
2023/03/20 05:23:50;;;;;;;15.60;6.68;;;;;;;8.05;67.28;94928.47;5030018;28;20212;-75
2023/03/20 05:26:17;;;;;;;15.95;6.85;;;;;;;8.29;65.76;94918.19;5029652;28;20200;-77
2023/03/20 05:28:44;;;;;;;15.32;6.97;;;;;;;8.13;65.93;94925.81;5030252;28;20777;-75
2023/03/20 05:31:11;;;;;;;12.13;6.90;;;;;;;8.36;65.83;94929.38;5028963;28;20215;-76
2023/03/20 05:33:39;;;;;;;16.02;7.03;;;;;;;8.54;65.84;94930.31;5028485;28;20874;-76
2023/03/20 05:36:07;;;;;;;12.57;6.20;;;;;;;8.82;65.48;94920.16;5029751;28;20204;-75
2023/03/20 05:38:33;;;;;;;18.15;7.80;;;;;;;9.16;64.88;94923.03;5016724;28;20243;-76
2023/03/20 05:41:01;;;;;;;17.35;7.32;;;;;;;9.66;63.00;94920.03;5029447;28;20200;-77
2023/03/20 05:43:28;;;;;;;24.20;8.23;;;;;;;9.76;61.93;94924.34;5029315;28;20211;-76
2023/03/20 05:45:55;;;;;;;20.15;9.02;;;;;;;9.64;61.61;94916.84;5028997;28;20228;-76
2023/03/20 05:48:21;;;;;;;20.27;9.05;;;;;;;10.19;59.70;94924.47;5029178;28;20866;-75
2023/03/20 05:50:50;;;;;;;20.52;9.13;;;;;;;10.96;59.06;94921.69;5029447;28;20209;-76
2023/03/20 05:53:17;;;;;;;16.95;9.60;;;;;;;11.59;56.59;94916.53;5029542;28;20854;-77
2023/03/20 05:55:45;;;;;;;20.98;8.60;;;;;;;11.81;55.41;94932.56;5029486;28;20262;-76
2023/03/20 05:58:12;;;;;;;22.60;10.10;;;;;;;11.96;55.23;94920.34;5028939;28;20204;-76
2023/03/20 06:00:39;;;;;;;16.98;8.57;;;;;;;12.50;54.38;94913.09;5028904;28;20208;-75
2023/03/20 06:03:08;;;;;;;16.98;10.10;;;;;;;12.48;52.72;94920.00;5029310;28;20262;-77
2023/03/20 06:05:36;;;;;;;19.10;10.25;;;;;;;12.78;52.36;94916.06;5029232;28;20231;-76
2023/03/20 06:08:05;;;;;;;16.35;9.38;;;;;;;12.41;53.17;94909.66;5029775;28;20935;-76
2023/03/20 06:10:32;;;;;;;22.65;10.07;;;;;;;12.58;51.89;94909.50;5029383;28;20270;-76
2023/03/20 06:13:00;;;;;;;21.67;10.98;;;;;;;12.08;53.02;94904.16;5029867;28;20201;-77
2023/03/20 06:15:27;;;;;;;21.40;10.40;;;;;;;11.79;55.51;94921.25;5029608;28;20247;-77
2023/03/20 06:17:54;;;;;;;31.85;11.60;;;;;;;11.89;54.70;94920.88;5029385;28;20209;-77
2023/03/20 06:20:21;;;;;;;22.75;11.13;;;;;;;12.31;53.49;94915.47;5029108;28;20248;-77
2023/03/20 06:22:48;;;;;;;23.90;12.73;;;;;;;13.44;50.49;94911.38;5029745;28;20255;-76
2023/03/20 06:25:16;;;;;;;27.90;12.70;;;;;;;13.11;51.09;94913.34;5029010;28;21008;-77
2023/03/20 06:27:43;;;;;;;24.33;10.85;;;;;;;13.35;50.21;94915.34;5028879;28;20228;-77
2023/03/20 06:30:11;;;;;;;29.67;16.08;;;;;;;13.18;49.83;94916.31;5029136;28;20196;-77
2023/03/20 06:32:37;;;;;;;22.52;11.25;;;;;;;13.29;49.52;94912.03;5028742;28;20208;-77
2023/03/20 06:35:06;;;;;;;34.97;11.07;;;;;;;12.90;50.25;94920.75;5028447;28;20224;-77
2023/03/20 06:37:33;;;;;;;32.75;16.55;;;;;;;12.80;50.52;94911.88;5028729;28;20663;-77
2023/03/20 06:40:00;;;;;;;28.50;15.45;;;;;;;13.02;49.93;94918.06;5028278;28;20204;-76
2023/03/20 06:42:28;;;;;;;27.48;12.07;;;;;;;13.61;48.87;94915.03;5028087;28;20250;-77
2023/03/20 06:44:55;;;;;;;21.33;10.40;;;;;;;13.86;47.87;94914.69;5028281;28;20208;-76
2023/03/20 06:47:22;;;;;;;26.60;15.40;;;;;;;14.11;47.66;94918.19;5027995;28;20201;-76
2023/03/20 06:49:49;;;;;;;28.00;15.43;;;;;;;14.72;47.40;94912.63;5028445;28;20201;-77
2023/03/20 06:52:17;;;;;;;27.08;15.48;;;;;;;14.56;46.27;94906.31;5021428;28;20667;-76
2023/03/20 06:54:44;;;;;;;26.42;15.55;;;;;;;15.12;45.51;94909.84;5027305;28;20762;-78
2023/03/20 06:57:12;;;;;;;24.85;15.43;;;;;;;15.26;44.92;94903.94;5029321;28;20227;-76
2023/03/20 06:59:40;;;;;;;30.08;16.08;;;;;;;15.45;44.59;94897.78;5027826;28;20208;-77
2023/03/20 07:02:07;;;;;;;32.15;15.23;;;;;;;14.88;45.57;94894.38;5028023;28;20270;-76
2023/03/20 07:04:33;;;;;;;24.60;14.88;;;;;;;15.47;44.76;94893.56;5014404;28;20236;-76
2023/03/20 07:07:00;;;;;;;23.88;14.25;;;;;;;15.52;44.74;94895.25;5028510;28;20286;-75
2023/03/20 07:09:27;;;;;;;26.13;13.60;;;;;;;15.31;44.27;94890.03;5015095;28;20235;-76
2023/03/20 07:11:54;;;;;;;20.85;12.68;;;;;;;15.39;44.23;94888.28;5028375;28;20671;-76
2023/03/20 07:14:21;;;;;;;23.02;13.15;;;;;;;14.46;46.67;94895.91;5028793;28;20705;-76
2023/03/20 07:16:49;;;;;;;24.95;13.38;;;;;;;15.17;44.83;94889.69;5028873;28;20200;-76
2023/03/20 07:19:16;;;;;;;24.42;14.15;;;;;;;13.99;47.39;94896.41;5028786;28;20228;-77
2023/03/20 07:21:43;;;;;;;28.60;13.85;;;;;;;13.70;47.72;94904.81;5028055;28;20201;-77
2023/03/20 07:24:10;;;;;;;25.45;13.55;;;;;;;14.27;47.13;94890.22;5028322;28;20647;-78
2023/03/20 07:26:38;;;;;;;22.85;12.55;;;;;;;14.03;47.52;94891.88;5027864;28;20216;-78
2023/03/20 07:29:05;;;;;;;21.88;13.45;;;;;;;14.75;45.94;94879.22;5028044;28;20236;-77
2023/03/20 07:31:31;;;;;;;25.77;13.40;;;;;;;14.47;46.75;94887.38;5027989;28;20653;-77
2023/03/20 07:34:00;;;;;;;20.42;12.10;;;;;;;13.63;48.57;94896.44;5027686;28;20937;-78
2023/03/20 07:36:26;;;;;;;19.10;9.82;;;;;;;13.96;48.04;94891.63;5028279;28;20231;-77
2023/03/20 07:38:53;;;;;;;18.27;11.18;;;;;;;14.16;47.45;94885.25;5028190;28;20200;-78
2023/03/20 07:41:20;;;;;;;16.98;10.32;;;;;;;13.64;48.76;94884.41;5028572;28;20208;-79
2023/03/20 07:43:46;;;;;;;16.63;10.60;;;;;;;13.01;49.87;94889.25;5028120;28;20208;-78
2023/03/20 07:46:13;;;;;;;21.48;11.55;;;;;;;12.68;50.81;94903.69;5027819;28;20598;-78
2023/03/20 07:48:40;;;;;;;19.85;10.80;;;;;;;13.09;50.23;94899.28;5027963;28;20255;-77
2023/03/20 07:51:08;;;;;;;21.33;12.55;;;;;;;13.79;49.52;94902.78;5027791;28;20732;-78
2023/03/20 07:53:37;;;;;;;23.85;11.15;;;;;;;13.03;50.39;94897.88;5027810;28;20204;-76
2023/03/20 07:56:04;;;;;;;23.95;12.50;;;;;;;13.58;49.58;94891.19;5027806;28;20212;-76
2023/03/20 07:58:31;;;;;;;17.27;11.20;;;;;;;13.99;49.16;94895.59;5027807;28;20219;-78
2023/03/20 08:00:58;;;;;;;21.55;11.57;;;;;;;14.06;48.70;94902.09;5027837;28;20207;-78
2023/03/20 08:03:25;;;;;;;23.35;12.85;;;;;;;14.18;49.48;94893.88;5028005;28;20197;-79
2023/03/20 08:05:53;;;;;;;24.83;13.00;;;;;;;14.48;47.78;94890.91;5027909;28;20208;-77
2023/03/20 08:08:21;;;;;;;26.90;12.25;;;;;;;14.85;46.57;94889.63;5027935;28;20232;-78
2023/03/20 08:10:48;;;;;;;19.98;11.15;;;;;;;14.61;47.24;94892.44;5027863;28;20710;-78
2023/03/20 08:13:16;;;;;;;15.32;10.30;;;;;;;14.81;46.73;94877.81;5028097;28;20204;-78
2023/03/20 08:15:42;;;;;;;19.55;10.00;;;;;;;15.21;45.97;94879.63;5027601;28;20266;-78
2023/03/20 08:18:09;;;;;;;23.55;10.95;;;;;;;14.93;46.21;94885.94;5027595;28;20259;-78
2023/03/20 08:20:36;;;;;;;22.33;10.90;;;;;;;15.19;45.89;94887.38;5027516;28;20220;-78
2023/03/20 08:23:04;;;;;;;18.48;11.50;;;;;;;14.64;46.99;94889.00;5029618;28;20204;-78
2023/03/20 08:25:33;;;;;;;23.10;12.07;;;;;;;13.77;49.03;94894.16;5030795;28;20747;-79
2023/03/20 08:28:02;;;;;;;18.90;11.90;;;;;;;13.56;49.35;94893.47;5031657;28;20224;-79
2023/03/20 08:30:30;;;;;;;20.42;11.48;;;;;;;13.31;49.56;94909.78;5030861;28;20201;-77
2023/03/20 08:33:03;;;;;;;23.90;12.98;;;;;;;13.42;49.51;94900.03;5030957;28;20644;-77
2023/03/20 08:35:29;;;;;;;22.40;13.48;;;;;;;13.88;48.88;94895.28;5031116;28;20206;-78
2023/03/20 08:38:00;;;;;;;23.08;15.15;;;;;;;13.90;48.65;94892.22;5030989;28;20255;-80
2023/03/20 08:40:27;;;;;;;31.90;15.30;;;;;;;13.72;48.87;94908.00;5030680;28;20226;-78
2023/03/20 08:42:56;;;;;;;24.98;14.68;;;;;;;14.14;47.92;94898.44;5030530;28;20633;-78
2023/03/20 08:45:24;;;;;;;30.60;14.68;;;;;;;14.08;47.82;94899.78;5030613;28;20729;-78
2023/03/20 08:47:54;;;;;;;23.15;13.13;;;;;;;14.11;47.79;94888.22;5030938;28;20216;-78
2023/03/20 08:50:23;;;;;;;20.50;11.88;;;;;;;14.85;45.89;94884.16;5031094;28;20208;-78
2023/03/20 08:52:55;;;;;;;22.20;11.95;;;;;;;14.91;45.82;94877.28;5030536;28;20246;-78
2023/03/20 08:55:24;;;;;;;20.10;12.40;;;;;;;14.60;46.09;94882.69;5030864;28;20254;-78
2023/03/20 08:57:56;;;;;;;21.88;13.02;;;;;;;14.36;47.17;94888.94;5030537;28;20207;-77
2023/03/20 09:00:23;;;;;;;26.52;12.75;;;;;;;14.73;46.30;94878.75;5030570;28;20239;-78
2023/03/20 09:02:55;;;;;;;26.42;13.85;;;;;;;15.03;45.97;94881.91;5030357;28;20207;-77
2023/03/20 09:05:25;;;;;;;19.10;12.48;;;;;;;14.93;47.06;94885.94;5030930;28;20227;-78
2023/03/20 09:07:52;;;;;;;22.48;11.98;;;;;;;14.97;45.77;94882.50;5029882;28;20207;-76
2023/03/20 09:10:21;;;;;;;17.50;11.60;;;;;;;15.33;45.40;94876.81;5030027;28;20213;-76
2023/03/20 09:12:48;;;;;;;26.98;12.98;;;;;;;15.40;44.83;94877.03;5030721;28;20208;-77
2023/03/20 09:15:16;;;;;;;22.25;12.63;;;;;;;15.19;45.87;94871.00;5030542;28;20204;-77
2023/03/20 09:17:46;;;;;;;21.38;12.93;;;;;;;14.41;46.84;94872.41;5030043;28;20196;-76
2023/03/20 09:20:13;;;;;;;25.40;12.05;;;;;;;14.37;47.29;94867.94;5030394;28;20231;-77
2023/03/20 09:22:42;;;;;;;25.05;12.77;;;;;;;15.02;46.80;94865.91;5030144;28;20657;-77
2023/03/20 09:25:09;;;;;;;21.40;12.45;;;;;;;15.20;45.14;94858.94;5029993;28;20684;-77
2023/03/20 09:27:36;;;;;;;19.92;12.30;;;;;;;14.88;45.39;94856.19;5029799;28;20622;-79
2023/03/20 09:30:03;;;;;;;24.88;13.55;;;;;;;15.20;45.69;94861.69;5029564;28;20773;-77
2023/03/20 09:32:31;;;;;;;20.55;12.30;;;;;;;15.38;45.77;94849.28;5029063;28;20215;-77
2023/03/20 09:34:58;;;;;;;23.33;12.63;;;;;;;15.77;44.83;94852.19;5029277;28;20564;-77
2023/03/20 09:37:25;;;;;;;25.17;13.02;;;;;;;16.12;44.55;94831.16;5029583;28;20211;-77
2023/03/20 09:39:51;;;;;;;21.50;11.65;;;;;;;16.01;43.72;94835.56;5029330;28;20266;-78
2023/03/20 09:42:30;;;;;;;20.55;11.07;;;;;;;15.56;44.44;94847.81;5030017;28;20487;-76
2023/03/20 09:45:05;;;;;;;15.80;11.65;;;;;;;15.88;43.68;94831.38;5029945;28;20211;-76
2023/03/20 09:47:45;;;;;;;22.67;12.52;;;;;;;16.13;43.64;94821.78;5029535;28;20581;-77
2023/03/20 09:50:25;;;;;;;20.42;12.02;;;;;;;15.67;44.21;94815.28;5029708;28;20277;-78
2023/03/20 09:52:58;;;;;;;25.10;11.55;;;;;;;15.46;45.08;94815.53;5029404;28;20291;-78
2023/03/20 09:55:33;;;;;;;22.27;12.68;;;;;;;15.88;44.43;94795.84;5029594;28;20667;-78
2023/03/20 09:58:07;;;;;;;20.65;11.02;;;;;;;16.30;43.42;94799.50;5016906;28;20204;-77
2023/03/20 10:00:35;;;;;;;21.83;11.70;;;;;;;16.23;43.36;94796.63;5029326;28;20291;-77
2023/03/20 10:03:06;;;;;;;22.35;12.57;;;;;;;16.76;42.48;94783.22;5030147;28;20215;-77
2023/03/20 10:05:38;;;;;;;20.10;11.65;;;;;;;16.45;43.38;94778.69;5029291;28;20224;-77
2023/03/20 10:08:07;;;;;;;20.52;11.32;;;;;;;16.86;42.63;94774.41;5029545;28;20204;-77
2023/03/20 10:10:42;;;;;;;24.55;11.55;;;;;;;16.29;42.90;94770.56;5028519;28;20754;-77
2023/03/20 10:13:39;;;;;;;17.65;10.60;;;;;;;16.39;43.22;94773.88;5029406;28;20215;-77
2023/03/20 10:16:16;;;;;;;27.73;11.77;;;;;;;16.87;42.46;94767.00;5029445;28;20204;-78
2023/03/20 10:18:52;;;;;;;23.08;11.60;;;;;;;16.67;42.40;94763.53;5029624;28;20298;-77
2023/03/20 10:21:23;;;;;;;19.52;10.60;;;;;;;16.63;42.50;94762.66;5029285;28;20293;-77
2023/03/20 10:23:57;;;;;;;21.58;11.63;;;;;;;16.91;42.30;94763.19;5028548;28;20200;-76
2023/03/20 10:26:24;;;;;;;21.58;10.95;;;;;;;16.62;42.74;94755.59;5028924;28;20206;-78
2023/03/20 10:28:57;;;;;;;22.98;11.38;;;;;;;16.36;42.96;94761.72;5028667;28;20216;-77
2023/03/20 10:31:36;;;;;;;19.30;10.82;;;;;;;16.57;43.05;94758.59;5028610;28;20208;-76
2023/03/20 10:34:20;;;;;;;23.25;11.35;;;;;;;16.93;43.09;94755.41;5027957;28;20212;-77
2023/03/20 10:37:01;;;;;;;19.10;11.00;;;;;;;16.95;42.01;94755.81;5028795;28;20209;-77
2023/03/20 10:39:39;;;;;;;18.55;10.43;;;;;;;17.11;41.82;94739.25;5028303;28;20204;-76
2023/03/20 10:42:15;;;;;;;17.67;10.63;;;;;;;17.66;40.61;94737.00;5028788;28;20254;-76
2023/03/20 10:44:47;;;;;;;22.05;10.63;;;;;;;17.72;40.72;94730.84;5028169;28;20200;-78
2023/03/20 10:47:18;;;;;;;24.25;12.30;;;;;;;18.11;40.50;94722.34;5028675;28;20209;-79
2023/03/20 10:49:50;;;;;;;20.40;10.75;;;;;;;18.37;38.67;94725.00;5028769;28;20228;-79
2023/03/20 10:52:20;;;;;;;23.80;11.90;;;;;;;18.39;38.80;94724.63;5028302;28;20283;-75
2023/03/20 10:54:50;;;;;;;22.25;11.70;;;;;;;18.84;38.57;94712.59;5027961;28;20204;-76
2023/03/20 10:57:22;;;;;;;21.67;12.13;;;;;;;18.96;37.62;94709.56;5028557;28;20572;-76
2023/03/20 10:59:51;;;;;;;21.63;11.73;;;;;;;18.65;38.12;94715.53;5028129;28;20261;-78
2023/03/20 11:02:20;;;;;;;20.98;10.27;;;;;;;18.41;38.06;94703.91;5028210;28;20200;-77
2023/03/20 11:04:48;;;;;;;19.77;11.25;;;;;;;17.99;38.78;94700.66;5028023;28;20204;-78
2023/03/20 11:07:24;;;;;;;21.27;10.93;;;;;;;17.93;39.81;94702.13;5028698;28;20599;-78
2023/03/20 11:10:17;;;;;;;17.88;11.35;;;;;;;18.16;37.77;94705.56;5028021;28;20285;-78
2023/03/20 11:12:46;;;;;;;19.42;11.18;;;;;;;18.72;37.15;94699.91;5015785;28;20612;-77
2023/03/20 11:15:24;;;;;;;27.52;11.18;;;;;;;19.01;37.02;94686.44;5028687;28;20208;-77
2023/03/20 11:17:56;;;;;;;20.83;10.55;;;;;;;19.38;36.58;94683.63;5028582;28;20200;-76
2023/03/20 11:20:25;;;;;;;16.58;10.63;;;;;;;18.86;37.46;94677.31;5028131;28;20319;-76
2023/03/20 11:22:59;;;;;;;18.92;10.05;;;;;;;19.31;36.48;94678.84;5027942;28;20274;-77
2023/03/20 11:25:32;;;;;;;15.55;9.48;;;;;;;19.70;35.58;94670.88;5027522;28;20317;-76
2023/03/20 11:28:19;;;;;;;17.65;10.40;;;;;;;20.02;35.08;94665.53;5027819;28;20205;-77
2023/03/20 11:30:48;;;;;;;16.73;10.23;;;;;;;20.41;35.40;94662.94;5016893;28;20228;-76
2023/03/20 11:33:16;;;;;;;20.17;11.18;;;;;;;20.58;34.05;94647.66;5027488;28;20941;-78
2023/03/20 11:35:47;;;;;;;16.63;10.15;;;;;;;20.24;34.76;94647.91;5027490;28;20968;-77
2023/03/20 11:38:16;;;;;;;21.88;10.27;;;;;;;20.12;34.82;94650.25;5027491;28;20250;-75
2023/03/20 11:40:43;;;;;;;19.02;10.63;;;;;;;20.41;34.78;94638.19;5027551;28;20271;-76